Latest Weather Observations for Portland Airport

IDV60801

Issued at 3:32 pm EST Sunday 20 August 2017 (issued every 30 minutes, with the page automatically refreshed every 10 minutes)

About weather observations | Map of weather stations | Latest weather observations for VIC | Other Formats
Station Details ID: 090171 Name: CASHMORE AIRPORT Lat: -38.31 Lon: 141.47 Height: 80.9 m
Data from the previous 72 hours. | See also: Recent months at Portland Airport
Date/Time
EST
Temp
°C
App
Temp
°C
Dew
Point
°C
Rel
Hum
%
Delta-T
°C
Wind Press
QNH
hPa
Press
MSL
hPa
Rain since
9am
mm
Dir  Spd
km/h
Gust
km/h
Spd
kts
Gust
kts
20/03:30pm 9.9 6.2 2.3 59 3.2 N 11 17 6 9 1020.1 1020.2 0.0
20/03:00pm 10.3 5.8 1.9 56 3.5 N 15 20 8 11 1020.4 1020.5 0.0
20/02:30pm 10.6 6.2 2.9 59 3.3 N 15 20 8 11 1020.4 1020.5 0.0
20/02:00pm 10.5 6.0 2.4 57 3.5 NNE 15 20 8 11 1020.4 1020.5 0.0
20/01:30pm 10.9 6.4 2.0 54 3.8 NNE 15 22 8 12 1021.1 1021.2 0.0
20/01:00pm 10.7 6.6 2.0 55 3.7 NNE 13 19 7 10 1021.8 1021.9 0.0
20/12:30pm 10.0 6.0 2.8 61 3.1 NE 13 17 7 9 1022.7 1022.8 0.0
20/12:00pm 10.2 6.3 3.3 62 3.0 NNE 13 17 7 9 1023.4 1023.5 0.0
20/11:30am 9.5 5.5 3.0 64 2.8 N 13 20 7 11 1024.7 1024.9 0.0
20/11:00am 8.9 4.9 2.7 65 2.6 N 13 20 7 11 1025.0 1025.2 0.0
20/10:30am 8.3 3.5 2.8 68 2.3 N 17 22 9 12 1025.3 1025.4 0.0
20/10:00am 7.5 3.5 2.8 72 2.0 N 13 20 7 11 1025.8 1025.9 0.0
20/09:30am 7.0 3.0 2.9 75 1.7 N 13 19 7 10 1026.2 1026.3 0.0
20/09:00am 5.9 1.8 2.4 78 1.4 N 13 17 7 9 1026.4 1026.5 0.0
20/08:30am 4.5 0.3 1.5 81 1.2 N 13 19 7 10 1026.5 1026.6 0.0
20/08:00am 3.1 -0.9 0.8 85 0.9 N 11 17 6 9 1026.6 1026.7 0.0
20/07:30am 2.3 -1.8 0.0 85 0.9 N 11 15 6 8 1026.7 1026.8 0.0
20/07:00am 2.4 -1.6 0.3 86 0.8 N 11 15 6 8 1026.7 1026.8 0.0
20/06:30am 2.3 -1.7 0.2 86 0.8 N 11 15 6 8 1026.5 1026.6 0.0
20/06:00am 2.2 -1.8 0.3 87 0.7 N 11 13 6 7 1026.5 1026.6 0.0
20/05:30am 2.2 -1.8 0.3 87 0.7 N 11 15 6 8 1026.5 1026.6 0.0
20/05:00am 2.4 -1.6 0.3 86 0.8 N 11 13 6 7 1026.5 1026.6 0.0
20/04:30am 2.4 -1.6 0.3 86 0.8 N 11 13 6 7 1026.5 1026.6 0.0
20/04:00am 2.8 -1.2 0.5 85 0.9 N 11 13 6 7 1026.7 1026.8 0.0
20/03:30am 3.1 -0.9 0.7 84 0.9 N 11 13 6 7 1026.7 1026.8 0.0
20/03:00am 3.1 -0.9 0.5 83 1.0 N 11 13 6 7 1027.0 1027.1 0.0
20/02:30am 3.8 -0.1 1.0 82 1.1 N 11 13 6 7 1026.9 1027.0 0.0
20/02:00am 3.9 0.0 1.3 83 1.0 N 11 13 6 7 1027.2 1027.3 0.0
20/01:30am 3.7 -0.6 0.9 82 1.1 NNW 13 15 7 8 1027.2 1027.3 0.0
20/01:00am 4.2 -0.1 1.1 80 1.2 N 13 13 7 7 1027.3 1027.4 0.0
20/12:30am 4.1 0.6 1.1 81 1.2 NNW 9 13 5 7 1027.5 1027.6 0.0
20/12:00am 4.0 -0.3 1.0 81 1.2 N 13 13 7 7 1027.6 1027.7 0.0
 
Date/Time
EST
Temp
°C
App
Temp
°C
Dew
Point
°C
Rel
Hum
%
Delta-T
°C
Wind Press
QNH
hPa
Press
MSL
hPa
Rain since
9am
mm
Dir  Spd
km/h
Gust
km/h
Spd
kts
Gust
kts
19/11:30pm 4.1 -0.2 1.1 81 1.2 N 13 15 7 8 1027.7 1027.8 0.0
19/11:00pm 5.3 1.9 1.6 77 1.5 N 9 11 5 6 1028.0 1028.1 0.0
19/10:30pm 6.1 2.5 2.9 80 1.3 NNW 11 13 6 7 1028.3 1028.4 0.0
19/10:00pm 5.5 2.2 2.5 81 1.2 S 9 11 5 6 1028.5 1028.6 0.0
19/09:30pm 5.5 3.2 2.5 81 1.2 S 4 7 2 4 1028.6 1028.7 0.0
19/09:00pm 5.2 3.6 2.4 82 1.1 CALM 0 6 0 3 1028.7 1028.8 0.0
19/08:30pm 4.7 2.2 1.6 80 1.2 S 4 6 2 3 1028.7 1028.8 0.0
19/08:00pm 6.0 4.4 2.5 78 1.4 CALM 0 6 0 3 1028.4 1028.5 0.0
19/07:30pm 6.7 4.4 2.6 75 1.7 S 4 7 2 4 1028.3 1028.4 0.0
19/07:00pm 7.1 5.6 2.8 74 1.8 CALM 0 0 0 0 1028.2 1028.3 0.0
19/06:30pm 7.2 5.6 2.7 73 1.9 CALM 0 0 0 0 1028.1 1028.2 0.0
19/06:00pm 8.6 7.1 2.8 67 2.4 CALM 0 0 0 0 1027.9 1028.0 0.0
19/05:30pm 9.9 7.6 2.5 60 3.2 SSE 4 6 2 3 1027.9 1028.0 0.0
19/05:00pm 9.9 7.6 2.5 60 3.1 SSE 4 7 2 4 1027.8 1027.9 0.0
19/04:30pm 10.7 7.7 2.0 55 3.7 S 7 11 4 6 1027.9 1028.0 0.0
19/04:00pm 10.4 7.4 1.8 55 3.6 S 7 13 4 7 1027.9 1028.0 0.0
19/03:30pm 10.4 6.6 2.0 56 3.6 S 11 19 6 10 1028.2 1028.3 0.0
19/03:00pm 10.1 6.0 2.0 57 3.4 SW 13 19 7 10 1028.4 1028.5 0.0
19/02:30pm 11.0 6.7 1.3 51 4.1 SW 13 20 7 11 1028.3 1028.4 0.0
19/02:00pm 10.3 6.1 1.7 55 3.6 SSW 13 20 7 11 1028.3 1028.4 0.0
19/01:30pm 10.4 6.6 2.0 56 3.6 SSW 11 17 6 9 1028.5 1028.6 0.0
19/01:00pm 10.6 6.6 2.9 59 3.3 SW 13 22 7 12 1028.5 1028.6 0.0
19/12:30pm 10.6 5.6 1.4 53 3.9 S 17 26 9 14 1028.6 1028.7 0.0
19/12:00pm 10.7 6.4 0.7 50 4.1 S 13 22 7 12 1028.7 1028.8 0.0
19/11:30am 10.1 5.8 1.0 53 3.8 SSW 13 24 7 13 1029.0 1029.1 0.0
19/11:00am 10.0 5.4 1.4 55 3.6 SSW 15 20 8 11 1028.9 1029.0 0.0
19/10:30am 10.9 6.6 1.2 51 4.1 S 13 20 7 11 1028.6 1028.7 0.0
19/10:00am 10.6 5.7 1.7 54 3.7 SSW 17 24 9 13 1028.6 1028.7 0.0
19/09:30am 9.3 5.6 2.4 62 2.9 S 11 19 6 10 1028.4 1028.5 0.0
19/09:00am 9.7 5.4 0.9 54 3.6 SW 13 19 7 10 1028.1 1028.2 8.2
19/08:30am 9.1 4.9 1.5 59 3.1 SSW 13 19 7 10 1027.6 1027.7 8.2
19/08:00am 8.7 4.5 1.6 61 2.9 SSW 13 22 7 12 1027.2 1027.3 8.2
19/07:30am 7.9 3.9 0.6 60 2.9 SSW 11 19 6 10 1026.8 1026.9 8.2
19/07:00am 6.7 3.6 1.6 70 2.1 SSE 7 11 4 6 1026.4 1026.5 8.2
19/06:30am 8.0 3.7 1.2 62 2.8 SSW 13 20 7 11 1026.0 1026.1 8.2
19/06:00am 8.0 2.9 0.5 59 3.0 SSW 17 28 9 15 1025.6 1025.7 8.2
19/05:30am 7.1 3.4 2.4 72 1.9 WSW 11 17 6 9 1025.3 1025.4 8.2
19/05:00am 7.4 2.6 2.5 71 2.0 SSW 17 30 9 16 1025.0 1025.2 8.0
19/04:30am 7.9 3.4 2.2 67 2.4 SSW 15 24 8 13 1024.6 1024.8 8.0
19/04:00am 8.1 3.4 3.0 70 2.2 SSW 17 32 9 17 1024.4 1024.6 8.0
19/03:30am 6.6 2.1 2.3 74 1.8 WSW 15 19 8 10 1024.2 1024.4 8.0
19/03:00am 8.1 3.3 2.6 68 2.3 SW 17 26 9 14 1024.1 1024.3 8.0
19/02:30am 8.2 4.6 2.9 69 2.2 S 11 22 6 12 1023.9 1024.1 8.0
19/02:00am 8.9 4.7 1.8 61 2.9 SSW 13 17 7 9 1023.9 1024.1 8.0
19/01:30am 8.5 4.3 1.6 62 2.8 SW 13 22 7 12 1023.7 1023.8 8.0
19/01:00am 8.1 3.9 1.9 65 2.6 SW 13 20 7 11 1023.5 1023.6 8.0
19/12:30am 8.4 3.3 0.6 58 3.1 SSW 17 28 9 15 1023.4 1023.5 8.0
19/12:00am 8.7 3.8 2.1 63 2.7 SSW 17 28 9 15 1023.1 1023.2 8.0
 
Date/Time
EST
Temp
°C
App
Temp
°C
Dew
Point
°C
Rel
Hum
%
Delta-T
°C
Wind Press
QNH
hPa
Press
MSL
hPa
Rain since
9am
mm
Dir  Spd
km/h
Gust
km/h
Spd
kts
Gust
kts
18/11:30pm 8.7 3.9 2.7 66 2.5 SSW 17 28 9 15 1023.1 1023.2 8.0
18/11:00pm 8.5 4.2 3.4 70 2.2 SW 15 28 8 15 1023.0 1023.1 8.0
18/10:30pm 7.6 3.4 3.6 76 1.7 SW 15 24 8 13 1022.8 1022.9 8.0
18/10:00pm 7.7 4.4 4.7 81 1.3 WSW 11 20 6 11 1022.6 1022.7 7.8
18/09:30pm 7.8 4.1 4.6 80 1.4 SW 13 19 7 10 1022.4 1022.5 7.8
18/09:00pm 7.3 2.9 4.6 83 1.2 SW 17 32 9 17 1022.1 1022.2 7.8
18/08:30pm 7.7 3.5 3.9 77 1.6 WSW 15 19 8 10 1021.8 1021.9 6.8
18/08:00pm 8.0 4.3 4.4 78 1.6 SW 13 20 7 11 1021.2 1021.3 6.6
18/07:41pm 7.7 4.4 4.7 81 1.3 SSW 11 20 6 11 1021.1 1021.2 6.6
18/07:30pm 7.9 4.2 4.5 79 1.5 SW 13 26 7 14 1020.9 1021.0 6.6
18/07:24pm 8.0 4.3 4.2 77 1.7 SW 13 26 7 14 1020.8 1020.9 6.4
18/07:00pm 8.2 4.1 4.4 77 1.7 SW 15 22 8 12 1020.5 1020.6 6.0
18/06:30pm 8.1 4.5 5.0 81 1.4 SW 13 22 7 12 1020.0 1020.1 6.0
18/06:00pm 8.2 3.9 5.1 81 1.4 SW 17 28 9 15 1019.3 1019.4 5.8
18/05:30pm 8.1 3.3 5.4 83 1.2 SW 20 39 11 21 1018.9 1019.0 5.8
18/05:10pm 7.7 3.8 5.2 84 1.1 WSW 15 20 8 11 1018.5 1018.6 5.8
18/05:00pm 7.7 3.0 5.2 84 1.1 SW 19 28 10 15 1018.5 1018.6 5.8
18/04:55pm 7.7 3.4 5.2 84 1.1 SW 17 28 9 15 1018.5 1018.6 5.8
18/04:50pm 7.9 3.6 5.4 84 1.1 SW 17 26 9 14 1018.5 1018.6 5.4
18/04:31pm 6.8 0.1 3.4 79 1.4 SW 28 46 15 25 1018.2 1018.3 5.0
18/04:30pm 6.8 0.4 3.2 78 1.5 SW 26 46 14 25 1018.3 1018.4 4.8
18/04:29pm 7.0 1.0 3.1 76 1.6 SW 24 46 13 25 1018.3 1018.4 4.2
18/04:17pm 9.2 4.9 5.4 77 1.7 SW 17 26 9 14 1017.6 1017.7 2.6
18/04:00pm 8.9 2.3 4.1 72 2.1 SW 28 43 15 23 1017.5 1017.6 2.6
18/03:30pm 11.0 5.8 5.3 68 2.6 SW 22 33 12 18 1017.1 1017.2 1.6
18/03:00pm 9.8 4.9 5.0 72 2.2 SSW 20 35 11 19 1016.7 1016.8 1.6
18/02:30pm 9.9 3.5 5.3 73 2.1 SW 28 43 15 23 1016.2 1016.3 1.6
18/02:00pm 10.8 6.2 6.7 76 1.9 WSW 20 33 11 18 1015.8 1015.9 1.4
18/01:40pm 9.3 2.9 5.1 75 1.9 WSW 28 46 15 25 1015.4 1015.5 1.4
18/01:30pm 10.0 2.8 4.8 70 2.3 WSW 32 44 17 24 1015.3 1015.4 1.4
18/01:11pm 11.3 5.3 7.2 76 2.0 SW 28 46 15 25 1015.2 1015.3 1.4
18/01:00pm 9.7 4.2 6.1 78 1.7 SW 24 35 13 19 1015.3 1015.4 1.4
18/12:36pm 9.0 1.8 5.0 76 1.8 WSW 32 70 17 38 1014.7 1014.8 1.0
18/12:35pm 9.2 2.5 5.4 77 1.7 WSW 30 50 16 27 1014.8 1014.9 1.0
18/12:30pm 9.0 3.0 5.4 78 1.6 WSW 26 39 14 21 1014.8 1014.9 1.0
18/12:13pm 9.4 2.8 4.2 70 2.3 SW 28 50 15 27 1014.7 1014.8 0.6
18/12:00pm 9.6 3.5 5.0 73 2.1 SW 26 41 14 22 1014.7 1014.8 0.4
18/11:30am 10.8 3.9 4.7 66 2.8 SW 30 48 16 26 1014.1 1014.2 0.4
18/11:00am 8.9 0.6 4.3 73 2.0 WSW 37 56 20 30 1014.0 1014.1 0.4
18/10:50am 10.5 3.6 4.4 66 2.7 SW 30 48 16 26 1013.6 1013.6 0.2
18/10:30am 10.1 3.5 4.3 67 2.6 SW 28 43 15 23 1013.2 1013.2 0.2
18/10:00am 10.2 2.9 4.4 67 2.6 SW 32 50 17 27 1012.7 1012.7 0.2
18/09:30am 8.6 1.6 4.2 74 1.9 SW 30 54 16 29 1011.9 1012.0 0.2
18/09:11am 10.1 2.2 4.3 67 2.6 WSW 35 54 19 29 1011.4 1011.5 0.0
18/09:00am 9.3 1.8 4.5 72 2.1 WSW 33 50 18 27 1011.1 1011.2 7.4
18/08:41am 9.2 2.8 5.0 75 1.9 WSW 28 46 15 25 1010.8 1010.9 7.4
18/08:30am 9.0 2.2 5.2 77 1.7 WSW 30 43 16 23 1010.7 1010.8 7.4
18/08:11am 8.0 0.5 4.2 77 1.7 WSW 33 52 18 28 1010.3 1010.4 7.4
18/08:00am 9.6 2.0 3.8 67 2.6 WSW 33 50 18 27 1009.8 1009.9 7.0
18/07:31am 9.5 1.5 3.7 67 2.5 SW 35 59 19 32 1009.1 1009.2 7.0
18/07:30am 9.4 1.8 3.8 68 2.5 SW 33 44 18 24 1009.1 1009.2 7.0
18/07:00am 9.0 0.0 4.8 75 1.9 WSW 41 63 22 34 1008.2 1008.3 7.0
18/06:42am 9.1 -0.9 4.3 72 2.1 WSW 46 65 25 35 1007.8 1007.9 7.0
18/06:33am 9.3 0.8 5.3 76 1.8 W 39 65 21 35 1007.4 1007.5 7.0
18/06:32am 9.1 1.0 5.3 77 1.7 W 37 65 20 35 1007.4 1007.5 7.0
18/06:30am 8.8 0.7 5.2 78 1.6 W 37 52 20 28 1007.7 1007.8 7.0
18/06:09am 9.2 0.6 4.6 73 2.1 W 39 57 21 31 1007.3 1007.4 6.8
18/06:00am 9.2 0.2 4.4 72 2.1 W 41 57 22 31 1007.2 1007.3 6.8
18/05:45am 8.7 1.8 4.7 76 1.8 W 30 48 16 26 1007.1 1007.2 6.8
18/05:30am 8.6 0.6 3.8 72 2.1 W 35 48 19 26 1007.2 1007.3 6.8
18/05:01am 8.9 1.8 5.3 78 1.6 W 32 56 17 30 1006.7 1006.8 6.6
18/05:00am 8.9 1.8 5.5 79 1.5 W 32 46 17 25 1006.6 1006.7 6.6
18/04:41am 9.1 2.3 5.3 77 1.7 WSW 30 48 16 26 1006.4 1006.5 6.4
18/04:30am 8.2 3.3 5.0 80 1.4 WSW 20 30 11 16 1006.2 1006.3 6.4
18/04:00am 8.1 1.1 4.1 76 1.8 WSW 30 43 16 23 1006.1 1006.2 6.4
18/03:30am 8.0 1.2 4.9 81 1.4 WSW 30 43 16 23 1005.7 1005.8 6.2
18/03:18am 7.3 -0.2 4.6 83 1.2 SW 33 59 18 32 1005.5 1005.6 6.2
18/03:13am 7.2 0.7 4.5 83 1.2 WSW 28 59 15 32 1005.5 1005.6 6.2
18/03:00am 7.6 1.1 4.6 81 1.3 SW 28 44 15 24 1005.4 1005.5 6.0
18/02:56am 7.9 0.6 4.5 79 1.5 SW 32 57 17 31 1005.5 1005.6 5.4
18/02:53am 8.2 0.7 4.4 77 1.7 WSW 33 57 18 31 1005.4 1005.5 5.0
18/02:30am 8.3 -0.3 4.7 78 1.6 WSW 39 61 21 33 1004.8 1004.9 4.4
18/02:11am 9.0 -0.2 3.6 69 2.3 WSW 41 74 22 40 1004.3 1004.4 4.4
18/02:04am 9.5 1.6 4.1 69 2.4 WSW 35 54 19 29 1004.3 1004.4 4.4
18/02:00am 9.3 1.8 4.3 71 2.2 W 33 46 18 25 1004.3 1004.4 4.4
18/01:38am 9.3 0.7 4.5 72 2.1 W 39 57 21 31 1004.1 1004.2 4.4
18/01:30am 9.1 0.1 4.3 72 2.1 W 41 56 22 30 1004.0 1004.1 4.4
18/01:04am 9.4 0.0 4.6 72 2.1 W 43 61 23 33 1003.5 1003.6 4.4
18/01:00am 9.3 -0.3 4.5 72 2.1 W 44 61 24 33 1003.4 1003.5 4.4
18/12:30am 8.8 1.5 5.4 79 1.5 W 33 56 18 30 1003.4 1003.5 4.4
18/12:28am 8.8 1.7 5.4 79 1.5 WNW 32 54 17 29 1003.3 1003.3 4.4
18/12:00am 8.1 -0.1 4.5 78 1.6 WNW 37 52 20 28 1003.2 1003.2 4.2
 
Date/Time
EST
Temp
°C
App
Temp
°C
Dew
Point
°C
Rel
Hum
%
Delta-T
°C
Wind Press
QNH
hPa
Press
MSL
hPa
Rain since
9am
mm
Dir  Spd
km/h
Gust
km/h
Spd
kts
Gust
kts
17/11:30pm 8.4 -1.3 4.0 74 1.9 W 44 65 24 35 1003.0 1003.0 4.2
17/11:26pm 8.5 -1.5 4.5 76 1.8 W 46 65 25 35 1002.8 1002.8 4.2
17/11:18pm 8.8 -1.4 5.0 77 1.7 W 48 63 26 34 1002.8 1002.8 4.2
17/11:04pm 8.0 -1.7 3.8 75 1.8 W 44 74 24 40 1002.6 1002.6 4.2
17/11:00pm 8.2 -1.0 3.3 71 2.1 W 41 74 22 40 1002.6 1002.6 4.0
17/10:59pm 8.9 -0.2 3.9 71 2.2 W 41 74 22 40 1002.5 1002.5 3.6
17/10:39pm 8.8 1.1 5.4 79 1.5 W 35 56 19 30 1002.7 1002.7 3.6
17/10:30pm 8.9 1.1 4.9 76 1.8 W 35 50 19 27 1002.7 1002.7 3.6
17/10:00pm 8.8 1.6 4.8 76 1.8 W 32 44 17 24 1002.8 1002.8 3.4
17/09:44pm 9.0 0.8 4.8 75 1.9 WSW 37 63 20 34 1002.8 1002.8 3.4
17/09:30pm 9.0 0.4 4.8 75 1.9 W 39 52 21 28 1002.8 1002.8 3.4
17/09:23pm 8.7 0.9 4.9 77 1.7 W 35 48 19 26 1002.8 1002.8 3.4
17/09:05pm 7.9 -1.7 3.6 74 1.9 W 43 69 23 37 1002.9 1002.9 3.2
17/09:00pm 10.1 1.9 4.5 68 2.5 WNW 37 56 20 30 1002.4 1002.4 3.0
17/08:30pm 9.7 0.9 3.4 65 2.7 W 39 57 21 31 1002.4 1002.4 3.0
17/08:00pm 9.9 2.4 4.5 69 2.4 W 33 54 18 29 1002.3 1002.3 3.0
17/07:58pm 9.9 2.4 4.7 70 2.3 W 33 54 18 29 1002.2 1002.2 3.0
17/07:30pm 9.4 2.0 5.0 74 2.0 W 33 46 18 25 1002.0 1002.0 3.0
17/07:09pm 9.3 1.8 4.7 73 2.1 W 33 52 18 28 1002.1 1002.1 2.8
17/07:00pm 9.3 1.1 4.5 72 2.1 W 37 52 20 28 1002.0 1002.0 2.8
17/06:47pm 8.7 0.4 4.1 73 2.0 W 37 56 20 30 1002.1 1002.1 2.8
17/06:42pm 8.8 0.1 4.2 73 2.0 W 39 56 21 30 1001.9 1001.9 2.8
17/06:38pm 8.5 1.0 4.7 77 1.7 W 33 56 18 30 1001.7 1001.7 2.8
17/06:30pm 8.1 0.2 4.5 78 1.6 WSW 35 65 19 35 1001.5 1001.5 2.8
17/06:24pm 7.7 -1.5 3.6 75 1.8 W 41 65 22 35 1001.4 1001.4 2.8
17/06:23pm 7.7 -1.6 3.2 73 1.9 W 41 65 22 35 1001.3 1001.3 2.8
17/06:21pm 9.0 0.2 3.8 70 2.3 W 39 65 21 35 1001.4 1001.4 2.2
17/06:03pm 9.8 3.4 5.2 73 2.1 WNW 28 46 15 25 1001.0 1001.0 2.0
17/06:00pm 9.4 3.4 5.2 75 1.9 WNW 26 44 14 24 1001.1 1001.1 2.0
17/05:30pm 9.8 0.8 4.4 69 2.4 WNW 41 74 22 40 1001.3 1001.3 2.0
17/05:29pm 9.9 0.9 4.3 68 2.5 WNW 41 74 22 40 1001.2 1001.2 2.0
17/05:00pm 10.7 2.9 4.8 67 2.7 WNW 35 56 19 30 1000.5 1000.5 2.0
17/04:30pm 11.0 3.1 4.5 64 2.9 WNW 35 54 19 29 1000.3 1000.3 2.0
17/04:23pm 10.9 2.9 3.9 62 3.1 WNW 35 54 19 29 1000.3 1000.3 2.0
17/04:00pm 11.2 2.6 4.9 65 2.9 W 39 50 21 27 1000.2 1000.2 2.0
17/03:44pm 11.7 3.4 4.0 59 3.5 W 37 57 20 31 1000.2 1000.2 2.0

Other Formats:

Comma delimited format used in spreadsheet applications
http://www.bom.gov.au/fwo/IDV60801/IDV60801.94828.axf

JavaScript Object Notation format (JSON) in row-major order
http://www.bom.gov.au/fwo/IDV60801/IDV60801.94828.json